createdAt,value
2019-05-19T00:01:46.352Z,13.53
2019-05-19T00:04:15.627Z,11.83
2019-05-19T00:06:42.852Z,11.67
2019-05-19T00:09:10.030Z,11.87
2019-05-19T00:11:37.228Z,11.97
2019-05-19T00:14:04.412Z,12.20
2019-05-19T00:16:31.592Z,11.27
2019-05-19T00:18:58.773Z,12.43
2019-05-19T00:21:25.948Z,11.60
2019-05-19T00:23:53.198Z,11.97
2019-05-19T00:26:20.366Z,12.40
2019-05-19T00:28:47.573Z,12.17
2019-05-19T00:31:14.775Z,12.17
2019-05-19T00:33:41.947Z,10.47
2019-05-19T00:36:09.145Z,10.97
2019-05-19T00:38:36.325Z,12.67
2019-05-19T00:41:03.506Z,10.83
2019-05-19T00:43:30.702Z,10.90
2019-05-19T00:45:57.892Z,11.23
2019-05-19T00:48:25.135Z,11.03
2019-05-19T00:50:52.319Z,11.63
2019-05-19T00:53:19.501Z,11.93
2019-05-19T00:55:46.690Z,10.43
2019-05-19T00:58:13.868Z,10.90
2019-05-19T01:00:41.051Z,10.43
2019-05-19T01:03:08.252Z,10.73
2019-05-19T01:05:35.520Z,12.17
2019-05-19T01:08:02.707Z,10.40
2019-05-19T01:10:29.877Z,10.07
2019-05-19T01:12:57.070Z,10.27
2019-05-19T01:15:24.230Z,9.10
2019-05-19T01:17:51.421Z,9.10
2019-05-19T01:20:18.676Z,8.30
2019-05-19T01:22:45.959Z,8.63
2019-05-19T01:25:13.201Z,8.90
2019-05-19T01:27:40.361Z,9.50
2019-05-19T01:30:07.937Z,8.83
2019-05-19T01:32:35.116Z,9.33
2019-05-19T01:35:02.294Z,8.77
2019-05-19T01:37:29.502Z,8.30
2019-05-19T01:39:56.746Z,8.17
2019-05-19T01:42:23.955Z,7.43
2019-05-19T01:44:51.130Z,7.43
2019-05-19T01:47:18.331Z,7.80
2019-05-19T01:49:45.503Z,8.30
2019-05-19T01:52:12.683Z,7.90
2019-05-19T01:54:39.854Z,7.80
2019-05-19T01:57:07.040Z,8.00
2019-05-19T01:59:34.212Z,8.73
2019-05-19T02:02:01.394Z,7.63
2019-05-19T02:04:28.638Z,8.90
2019-05-19T02:06:56.058Z,8.07
2019-05-19T02:09:23.238Z,8.63
2019-05-19T02:11:50.420Z,7.50
2019-05-19T02:14:17.619Z,8.50
2019-05-19T02:16:44.859Z,7.97
2019-05-19T02:19:12.053Z,8.10
2019-05-19T02:21:39.222Z,7.73
2019-05-19T02:24:06.389Z,8.77
2019-05-19T02:26:33.574Z,8.50
2019-05-19T02:29:00.745Z,7.33
2019-05-19T02:31:27.918Z,7.23
2019-05-19T02:33:55.087Z,8.27
2019-05-19T02:36:22.259Z,7.63
2019-05-19T02:38:49.432Z,7.90
2019-05-19T02:41:17.591Z,7.73
2019-05-19T02:43:44.774Z,7.73
2019-05-19T02:46:11.947Z,8.43
2019-05-19T02:48:39.130Z,7.57
2019-05-19T02:51:06.366Z,8.20
2019-05-19T02:53:34.135Z,9.50
2019-05-19T02:56:01.469Z,9.30
2019-05-19T02:58:28.635Z,9.10
2019-05-19T03:00:55.815Z,8.90
2019-05-19T03:03:22.991Z,8.73
2019-05-19T03:05:50.176Z,10.20
2019-05-19T03:08:17.347Z,9.17
2019-05-19T03:10:44.523Z,8.53
2019-05-19T03:13:11.706Z,9.03
2019-05-19T03:15:38.951Z,8.27
2019-05-19T03:18:06.126Z,8.23
2019-05-19T03:20:33.314Z,9.67
2019-05-19T03:23:00.500Z,8.03
2019-05-19T03:25:27.673Z,9.40
2019-05-19T03:27:54.926Z,8.30
2019-05-19T03:30:26.654Z,9.03
2019-05-19T03:32:55.462Z,8.67
2019-05-19T03:35:22.635Z,9.00
2019-05-19T03:37:49.802Z,9.47
2019-05-19T03:40:18.622Z,8.77
2019-05-19T03:42:45.821Z,8.63
2019-05-19T03:45:13.051Z,8.97
2019-05-19T03:47:40.231Z,8.57
2019-05-19T03:50:07.406Z,8.03
2019-05-19T03:52:34.586Z,8.67
2019-05-19T03:55:01.763Z,8.27
2019-05-19T03:57:28.927Z,8.47
2019-05-19T03:59:56.117Z,8.60
2019-05-19T04:02:23.287Z,8.77
2019-05-19T04:04:50.540Z,7.77
2019-05-19T04:07:17.725Z,8.43
2019-05-19T04:09:44.979Z,8.20
2019-05-19T04:12:12.187Z,7.97
2019-05-19T04:14:39.442Z,8.37
2019-05-19T04:17:06.683Z,7.93
2019-05-19T04:19:33.885Z,9.10
2019-05-19T04:22:01.059Z,7.53
2019-05-19T04:24:28.259Z,8.77
2019-05-19T04:26:55.527Z,8.57
2019-05-19T04:29:22.794Z,9.57
2019-05-19T04:31:50.036Z,8.23
2019-05-19T04:34:17.200Z,8.33
2019-05-19T04:36:44.383Z,8.33
2019-05-19T04:39:11.546Z,8.73
2019-05-19T04:41:40.291Z,9.13
2019-05-19T04:44:07.686Z,8.77
2019-05-19T04:46:34.867Z,8.20
2019-05-19T04:49:02.082Z,8.90
2019-05-19T04:51:29.337Z,9.30
2019-05-19T04:53:56.513Z,9.27
2019-05-19T04:56:23.699Z,9.03
2019-05-19T04:58:50.895Z,9.43
2019-05-19T05:01:18.156Z,8.83
2019-05-19T05:03:45.421Z,9.60
2019-05-19T05:06:12.600Z,8.57
2019-05-19T05:08:39.805Z,9.87
2019-05-19T05:11:07.053Z,9.10
2019-05-19T05:13:34.273Z,8.40
2019-05-19T05:16:01.483Z,8.60
2019-05-19T05:18:28.724Z,9.43
2019-05-19T05:20:55.940Z,9.30
2019-05-19T05:23:23.170Z,9.07
2019-05-19T05:25:50.383Z,9.53
2019-05-19T05:28:17.646Z,9.03
2019-05-19T05:30:44.924Z,9.57
2019-05-19T05:33:12.184Z,9.73
2019-05-19T05:35:39.579Z,8.87
2019-05-19T05:38:07.301Z,8.50
2019-05-19T05:40:34.477Z,8.77
2019-05-19T05:43:01.746Z,9.43
2019-05-19T05:45:28.990Z,9.33
2019-05-19T05:47:56.227Z,9.23
2019-05-19T05:50:23.418Z,9.43
2019-05-19T05:52:50.691Z,8.80
2019-05-19T05:55:17.940Z,9.13
2019-05-19T05:57:45.143Z,9.17
2019-05-19T06:00:15.579Z,9.30
2019-05-19T06:02:41.202Z,8.67
2019-05-19T06:05:09.383Z,8.83
2019-05-19T06:07:36.555Z,8.60
2019-05-19T06:10:05.308Z,9.10
2019-05-19T06:12:32.475Z,9.13
2019-05-19T06:14:59.776Z,10.27
2019-05-19T06:17:27.042Z,9.87
2019-05-19T06:19:54.228Z,8.63
2019-05-19T06:22:21.401Z,8.80
2019-05-19T06:24:48.583Z,8.93
2019-05-19T06:27:15.767Z,9.93
2019-05-19T06:29:42.943Z,8.03
2019-05-19T06:32:14.455Z,8.73
2019-05-19T06:34:41.653Z,9.20
2019-05-19T06:37:08.818Z,9.03
2019-05-19T06:39:36.001Z,8.70
2019-05-19T06:42:03.226Z,7.77
2019-05-19T06:44:30.399Z,8.67
2019-05-19T06:46:57.566Z,8.43
2019-05-19T06:49:24.762Z,8.50
2019-05-19T06:51:51.924Z,8.83
2019-05-19T06:54:19.115Z,7.43
2019-05-19T06:56:46.721Z,7.47
2019-05-19T06:59:13.895Z,7.70
2019-05-19T07:01:41.150Z,8.60
2019-05-19T07:04:08.435Z,9.33
2019-05-19T07:06:35.595Z,8.30
2019-05-19T07:09:04.437Z,7.87
2019-05-19T07:11:31.611Z,7.53
2019-05-19T07:14:00.877Z,7.43
2019-05-19T07:16:27.708Z,8.20
2019-05-19T07:18:54.887Z,8.33
2019-05-19T07:21:22.058Z,6.83
2019-05-19T07:23:49.251Z,8.17
2019-05-19T07:26:16.531Z,7.40
2019-05-19T07:28:43.703Z,6.47
2019-05-19T07:31:10.888Z,7.47
2019-05-19T07:33:38.057Z,6.57
2019-05-19T07:36:05.230Z,6.20
2019-05-19T07:38:32.411Z,6.03
2019-05-19T07:40:59.630Z,5.97
2019-05-19T07:43:26.838Z,5.87
2019-05-19T07:45:54.037Z,6.70
2019-05-19T07:48:21.286Z,5.40
2019-05-19T07:50:48.462Z,5.67
2019-05-19T07:53:15.652Z,5.80
2019-05-19T07:55:42.847Z,5.27
2019-05-19T07:58:10.014Z,5.20
2019-05-19T08:00:37.243Z,5.50
2019-05-19T08:03:04.531Z,4.83
2019-05-19T08:05:32.187Z,5.17
2019-05-19T08:07:59.383Z,5.50
2019-05-19T08:10:26.542Z,5.50
2019-05-19T08:12:53.734Z,5.37
2019-05-19T08:15:20.932Z,4.70
2019-05-19T08:17:48.182Z,4.70
2019-05-19T08:20:16.094Z,5.70
2019-05-19T08:22:43.278Z,5.93
2019-05-19T08:25:10.512Z,5.07
2019-05-19T08:27:37.675Z,5.27
2019-05-19T08:30:06.572Z,5.83
2019-05-19T08:32:33.738Z,5.20
2019-05-19T08:35:00.918Z,5.43
2019-05-19T08:37:28.095Z,4.83
2019-05-19T08:39:55.259Z,5.27
2019-05-19T08:42:22.443Z,5.43
2019-05-19T08:44:49.639Z,4.90
2019-05-19T08:47:16.827Z,5.13
2019-05-19T08:49:44.126Z,5.23
2019-05-19T08:52:11.362Z,5.30
2019-05-19T08:54:38.571Z,5.37
2019-05-19T08:57:05.755Z,5.80
2019-05-19T08:59:32.952Z,4.87
2019-05-19T09:02:00.204Z,5.43
2019-05-19T09:04:27.442Z,5.58
2019-05-19T09:06:54.641Z,5.10
2019-05-19T09:09:21.807Z,5.70
2019-05-19T09:11:48.992Z,6.28
2019-05-19T09:14:16.187Z,5.00
2019-05-19T09:16:43.362Z,6.00
2019-05-19T09:19:10.562Z,4.77
2019-05-19T09:21:37.761Z,5.00
2019-05-19T09:24:05.031Z,4.53
2019-05-19T09:26:32.192Z,4.63
2019-05-19T09:29:00.224Z,4.53
2019-05-19T09:31:27.986Z,4.77
2019-05-19T09:33:55.162Z,4.97
2019-05-19T09:36:22.444Z,3.70
2019-05-19T09:38:49.696Z,3.87
2019-05-19T09:41:16.939Z,3.90
2019-05-19T09:43:44.124Z,3.35
2019-05-19T09:46:13.898Z,3.42
2019-05-19T09:48:40.199Z,3.63
2019-05-19T09:51:07.386Z,3.90
2019-05-19T09:53:34.571Z,3.53
2019-05-19T09:56:01.798Z,2.73
2019-05-19T09:58:28.979Z,3.27
2019-05-19T10:00:56.162Z,3.90
2019-05-19T10:03:23.342Z,3.53
2019-05-19T10:05:50.507Z,3.80
2019-05-19T10:08:19.335Z,4.10
2019-05-19T10:10:54.318Z,3.55
2019-05-19T10:13:21.507Z,4.28
2019-05-19T10:15:48.683Z,4.03
2019-05-19T10:18:15.865Z,4.40
2019-05-19T10:20:43.056Z,4.17
2019-05-19T10:23:10.220Z,4.03
2019-05-19T10:25:37.422Z,4.00
2019-05-19T10:28:04.579Z,3.80
2019-05-19T10:30:31.779Z,4.17
2019-05-19T10:32:58.983Z,3.90
2019-05-19T10:35:26.208Z,4.12
2019-05-19T10:37:53.483Z,4.33
2019-05-19T10:40:20.639Z,3.90
2019-05-19T10:42:47.935Z,4.12
2019-05-19T10:45:15.174Z,4.00
2019-05-19T10:47:42.368Z,3.72
2019-05-19T10:50:09.560Z,4.03
2019-05-19T10:52:36.745Z,4.42
2019-05-19T10:55:05.093Z,4.40
2019-05-19T10:57:32.344Z,4.72
2019-05-19T10:59:59.569Z,4.40
2019-05-19T11:02:26.782Z,4.40
2019-05-19T11:04:53.952Z,5.53
2019-05-19T11:07:21.159Z,5.80
2019-05-19T11:09:48.402Z,4.53
2019-05-19T11:12:15.602Z,4.30
2019-05-19T11:14:42.783Z,4.22
2019-05-19T11:17:09.980Z,3.92
2019-05-19T11:19:37.137Z,4.42
2019-05-19T11:22:04.299Z,4.40
2019-05-19T11:24:31.495Z,4.67
2019-05-19T11:26:59.131Z,4.47
2019-05-19T11:29:26.393Z,4.95
2019-05-19T11:31:53.569Z,3.98
2019-05-19T11:34:20.796Z,4.45
2019-05-19T11:36:48.045Z,4.17
2019-05-19T11:39:15.228Z,4.40
2019-05-19T11:41:42.409Z,4.60
2019-05-19T11:44:09.647Z,4.85
2019-05-19T11:46:36.854Z,4.08
2019-05-19T11:49:04.023Z,4.55
2019-05-19T11:51:31.213Z,4.37
2019-05-19T11:53:58.388Z,4.97
2019-05-19T11:56:25.575Z,5.40
2019-05-19T11:58:52.761Z,5.22
2019-05-19T12:01:19.935Z,4.47
2019-05-19T12:03:47.109Z,4.50
2019-05-19T12:06:14.274Z,4.53
2019-05-19T12:08:41.436Z,4.95
2019-05-19T12:11:08.615Z,5.08
2019-05-19T12:13:35.796Z,4.70
2019-05-19T12:16:02.985Z,5.00
2019-05-19T12:18:30.155Z,4.90
2019-05-19T12:20:57.347Z,4.50
2019-05-19T12:23:24.522Z,4.33
2019-05-19T12:25:51.702Z,5.30
2019-05-19T12:28:18.883Z,5.08
2019-05-19T12:30:46.056Z,4.60
2019-05-19T12:33:13.241Z,5.47
2019-05-19T12:35:41.196Z,5.70
2019-05-19T12:38:08.360Z,5.33
2019-05-19T12:40:35.602Z,4.92
2019-05-19T12:43:02.838Z,5.45
2019-05-19T12:45:30.151Z,5.72
2019-05-19T12:47:57.334Z,5.50
2019-05-19T12:50:24.527Z,5.58
2019-05-19T12:52:51.708Z,5.47
2019-05-19T12:55:18.897Z,5.55
2019-05-19T12:57:46.061Z,6.00
2019-05-19T13:00:13.246Z,5.90
2019-05-19T13:02:40.528Z,5.67
2019-05-19T13:05:07.782Z,6.33
2019-05-19T13:07:34.958Z,6.08
2019-05-19T13:10:02.146Z,5.12
2019-05-19T13:12:29.303Z,4.78
2019-05-19T13:14:56.486Z,5.10
2019-05-19T13:17:23.657Z,5.55
2019-05-19T13:19:50.905Z,4.95
2019-05-19T13:22:18.092Z,5.55
2019-05-19T13:24:45.347Z,6.12
2019-05-19T13:27:12.591Z,5.65
2019-05-19T13:29:39.767Z,4.80
2019-05-19T13:32:06.991Z,4.80
2019-05-19T13:34:34.208Z,5.28
2019-05-19T13:37:01.391Z,4.10
2019-05-19T13:39:28.646Z,4.90
2019-05-19T13:41:55.889Z,4.65
2019-05-19T13:44:23.121Z,5.12
2019-05-19T13:46:50.310Z,4.87
2019-05-19T13:49:17.537Z,4.85
2019-05-19T13:51:44.751Z,5.05
2019-05-19T13:54:11.930Z,5.10
2019-05-19T13:56:39.094Z,5.85
2019-05-19T13:59:06.294Z,5.58
2019-05-19T14:01:33.458Z,5.92
2019-05-19T14:04:00.665Z,5.10
2019-05-19T14:06:27.839Z,5.70
2019-05-19T14:08:55.031Z,5.78
2019-05-19T14:11:22.244Z,5.47
2019-05-19T14:13:49.483Z,5.35
2019-05-19T14:16:16.678Z,5.33
2019-05-19T14:18:43.842Z,5.80
2019-05-19T14:21:11.003Z,5.25
2019-05-19T14:23:38.198Z,5.67
2019-05-19T14:26:05.444Z,5.33
2019-05-19T14:28:32.612Z,6.00
2019-05-19T14:31:00.161Z,5.80
2019-05-19T14:33:27.404Z,6.10
2019-05-19T14:35:54.611Z,6.00
2019-05-19T14:38:21.791Z,5.40
2019-05-19T14:40:48.989Z,4.80
2019-05-19T14:43:17.847Z,5.60
2019-05-19T14:45:45.023Z,5.17
2019-05-19T14:48:12.201Z,5.10
2019-05-19T14:50:39.382Z,5.43
2019-05-19T14:53:06.574Z,5.07
2019-05-19T14:55:33.764Z,4.83
2019-05-19T14:58:00.935Z,4.97
2019-05-19T15:00:28.136Z,4.43
2019-05-19T15:02:55.310Z,5.03
2019-05-19T15:05:22.486Z,5.00
2019-05-19T15:07:49.720Z,4.70
2019-05-19T15:10:16.920Z,5.50
2019-05-19T15:12:44.098Z,5.47
2019-05-19T15:15:11.290Z,4.97
2019-05-19T15:17:38.481Z,5.37
2019-05-19T15:20:08.160Z,4.90
2019-05-19T15:22:35.470Z,5.57
2019-05-19T15:25:02.660Z,5.20
2019-05-19T15:27:29.833Z,5.93
2019-05-19T15:30:11.475Z,4.77
2019-05-19T15:32:25.930Z,5.63
2019-05-19T15:34:53.176Z,5.83
2019-05-19T15:37:20.443Z,5.37
2019-05-19T15:39:47.694Z,5.63
2019-05-19T15:42:14.882Z,5.63
2019-05-19T15:44:42.134Z,5.43
2019-05-19T15:47:09.302Z,5.57
2019-05-19T15:49:36.494Z,5.90
2019-05-19T15:52:05.539Z,5.50
2019-05-19T15:54:32.560Z,5.90
2019-05-19T15:56:59.767Z,5.67
2019-05-19T15:59:26.998Z,5.30
2019-05-19T16:01:54.174Z,5.23
2019-05-19T16:04:21.348Z,5.03
2019-05-19T16:06:48.534Z,5.90
2019-05-19T16:09:15.711Z,7.07
2019-05-19T16:11:42.899Z,5.93
2019-05-19T16:14:10.595Z,5.97
2019-05-19T16:16:37.792Z,5.80
2019-05-19T16:19:04.976Z,4.80
2019-05-19T16:21:32.203Z,5.27
2019-05-19T16:23:59.382Z,5.57
2019-05-19T16:26:27.125Z,5.90
2019-05-19T16:28:54.315Z,6.50
2019-05-19T16:31:21.495Z,5.40
2019-05-19T16:33:48.699Z,5.53
2019-05-19T16:36:15.873Z,5.73
2019-05-19T16:38:43.062Z,5.57
2019-05-19T16:41:10.368Z,6.17
2019-05-19T16:43:37.641Z,5.83
2019-05-19T16:46:04.882Z,5.63
2019-05-19T16:48:32.063Z,6.20
2019-05-19T16:50:59.257Z,6.63
2019-05-19T16:53:26.439Z,6.53
2019-05-19T16:55:53.644Z,6.53
2019-05-19T16:58:21.788Z,7.37
2019-05-19T17:00:49.186Z,7.07
2019-05-19T17:03:16.462Z,5.40
2019-05-19T17:05:43.655Z,7.03
2019-05-19T17:08:10.956Z,7.37
2019-05-19T17:10:38.196Z,37.57
2019-05-19T17:13:05.428Z,189.60
2019-05-19T17:15:32.682Z,124.63
2019-05-19T17:17:59.902Z,102.53
2019-05-19T17:20:30.581Z,63.27
2019-05-19T17:22:56.021Z,39.57
2019-05-19T17:25:23.212Z,21.17
2019-05-19T17:27:50.481Z,16.47
2019-05-19T17:30:18.542Z,40.60
2019-05-19T17:32:45.711Z,26.27
2019-05-19T17:35:12.912Z,13.60
2019-05-19T17:37:40.103Z,9.00
2019-05-19T17:40:07.283Z,8.43
2019-05-19T17:42:37.225Z,8.20
2019-05-19T17:45:04.848Z,8.67
2019-05-19T17:47:32.030Z,8.53
2019-05-19T17:49:59.199Z,8.40
2019-05-19T17:52:26.400Z,8.40
2019-05-19T17:54:53.647Z,8.60
2019-05-19T17:57:20.835Z,8.07
2019-05-19T17:59:48.791Z,9.03
2019-05-19T18:02:16.018Z,7.73
2019-05-19T18:04:43.251Z,7.73
2019-05-19T18:07:10.429Z,7.73
2019-05-19T18:09:37.641Z,8.00
2019-05-19T18:12:04.878Z,8.30
2019-05-19T18:14:32.134Z,8.13
2019-05-19T18:16:59.338Z,9.10
2019-05-19T18:19:26.500Z,8.63
2019-05-19T18:21:53.677Z,7.70
2019-05-19T18:24:20.871Z,9.47
2019-05-19T18:26:48.048Z,9.03
2019-05-19T18:29:15.357Z,8.60
2019-05-19T18:31:42.587Z,8.03
2019-05-19T18:34:09.827Z,7.63
2019-05-19T18:36:37.011Z,8.90
2019-05-19T18:39:04.823Z,6.60
2019-05-19T18:41:32.016Z,7.23
2019-05-19T18:43:59.190Z,7.17
2019-05-19T18:46:26.409Z,6.90
2019-05-19T18:48:53.644Z,7.27
2019-05-19T18:51:20.842Z,7.37
2019-05-19T18:53:48.006Z,7.07
2019-05-19T18:56:15.193Z,6.77
2019-05-19T18:58:42.395Z,6.70
2019-05-19T19:01:09.584Z,6.20
2019-05-19T19:03:36.863Z,6.33
2019-05-19T19:06:04.112Z,5.60
2019-05-19T19:08:31.304Z,6.17
2019-05-19T19:10:58.486Z,5.23
2019-05-19T19:13:25.746Z,5.40
2019-05-19T19:15:52.952Z,5.63
2019-05-19T19:18:20.133Z,5.73
2019-05-19T19:20:47.324Z,5.87
2019-05-19T19:23:14.498Z,6.27
2019-05-19T19:25:41.693Z,5.60
2019-05-19T19:28:08.877Z,5.97
2019-05-19T19:30:36.080Z,6.37
2019-05-19T19:33:03.243Z,5.67
2019-05-19T19:35:38.584Z,5.80
2019-05-19T19:37:59.373Z,5.50
2019-05-19T19:40:30.008Z,5.90
2019-05-19T19:42:57.781Z,6.50
2019-05-19T19:45:25.039Z,5.87
2019-05-19T19:47:52.239Z,6.33
2019-05-19T19:50:19.420Z,6.30
2019-05-19T19:52:46.610Z,5.77
2019-05-19T19:55:13.792Z,6.77
2019-05-19T19:57:41.047Z,6.03
2019-05-19T20:00:18.034Z,7.00
2019-05-19T20:02:37.215Z,6.63
2019-05-19T20:05:04.980Z,6.07
2019-05-19T20:07:32.154Z,6.30
2019-05-19T20:09:59.431Z,6.37
2019-05-19T20:12:26.614Z,6.70
2019-05-19T20:14:53.790Z,7.30
2019-05-19T20:17:20.966Z,7.53
2019-05-19T20:19:48.157Z,6.50
2019-05-19T20:22:15.339Z,6.77
2019-05-19T20:24:42.598Z,6.93
2019-05-19T20:27:09.865Z,6.80
2019-05-19T20:29:37.040Z,7.27
2019-05-19T20:32:04.239Z,7.23
2019-05-19T20:34:31.431Z,7.40
2019-05-19T20:36:58.637Z,8.10
2019-05-19T20:39:25.815Z,7.07
2019-05-19T20:41:52.991Z,7.17
2019-05-19T20:44:20.186Z,7.97
2019-05-19T20:46:47.373Z,7.47
2019-05-19T20:49:14.563Z,7.27
2019-05-19T20:51:41.752Z,7.77
2019-05-19T20:54:08.961Z,7.77
2019-05-19T20:56:36.126Z,8.23
2019-05-19T20:59:03.318Z,7.47
2019-05-19T21:01:30.500Z,8.40
2019-05-19T21:03:57.690Z,8.30
2019-05-19T21:06:24.941Z,8.00
2019-05-19T21:08:52.106Z,8.40
2019-05-19T21:11:19.379Z,8.60
2019-05-19T21:13:46.562Z,8.03
2019-05-19T21:16:13.735Z,8.87
2019-05-19T21:18:40.939Z,8.50
2019-05-19T21:21:08.122Z,8.33
2019-05-19T21:23:35.323Z,9.07
2019-05-19T21:26:02.479Z,8.87
2019-05-19T21:28:29.675Z,8.37
2019-05-19T21:31:05.477Z,8.87
2019-05-19T21:33:25.780Z,8.93
2019-05-19T21:35:52.958Z,8.77
2019-05-19T21:38:20.137Z,9.00
2019-05-19T21:40:47.422Z,8.57
2019-05-19T21:43:14.751Z,9.17
2019-05-19T21:45:41.957Z,8.33
2019-05-19T21:48:09.144Z,9.33
2019-05-19T21:50:36.381Z,8.30
2019-05-19T21:53:06.352Z,8.60
2019-05-19T21:55:32.497Z,9.57
2019-05-19T21:57:59.695Z,9.50
2019-05-19T22:00:28.883Z,9.47
2019-05-19T22:02:56.129Z,9.13
2019-05-19T22:05:23.312Z,8.63
2019-05-19T22:08:01.048Z,8.23
2019-05-19T22:10:28.242Z,8.87
2019-05-19T22:12:55.511Z,9.30
2019-05-19T22:15:22.761Z,8.33
2019-05-19T22:17:50.067Z,9.13
2019-05-19T22:20:17.743Z,9.20
2019-05-19T22:22:45.049Z,8.60
2019-05-19T22:25:12.236Z,9.30
2019-05-19T22:27:39.425Z,8.63
2019-05-19T22:30:07.426Z,9.10
2019-05-19T22:32:34.744Z,9.97
2019-05-19T22:35:02.015Z,8.80
2019-05-19T22:37:29.300Z,8.57
2019-05-19T22:39:56.583Z,10.10
2019-05-19T22:42:23.822Z,10.37
2019-05-19T22:44:51.035Z,10.23
2019-05-19T22:47:18.234Z,10.87
2019-05-19T22:49:45.451Z,10.40
2019-05-19T22:52:12.733Z,9.60
2019-05-19T22:54:39.943Z,10.63
2019-05-19T22:57:07.125Z,9.83
2019-05-19T22:59:34.327Z,11.20
2019-05-19T23:02:01.539Z,10.80
2019-05-19T23:04:28.824Z,10.73
2019-05-19T23:06:56.014Z,10.83
2019-05-19T23:09:23.287Z,9.97
2019-05-19T23:11:50.546Z,12.33
2019-05-19T23:14:17.767Z,10.90
2019-05-19T23:16:45.004Z,11.90
2019-05-19T23:19:12.190Z,11.57
2019-05-19T23:21:39.399Z,11.33
2019-05-19T23:24:06.599Z,11.37
2019-05-19T23:26:33.793Z,10.97
2019-05-19T23:29:01.054Z,10.90
2019-05-19T23:31:28.263Z,11.10
2019-05-19T23:33:55.426Z,10.97
2019-05-19T23:36:22.629Z,10.63
2019-05-19T23:38:49.817Z,11.40
2019-05-19T23:41:17.002Z,11.13
2019-05-19T23:43:44.212Z,11.67
2019-05-19T23:46:11.538Z,11.83
2019-05-19T23:48:38.735Z,11.43
2019-05-19T23:51:05.934Z,10.73
2019-05-19T23:53:33.119Z,11.80
2019-05-19T23:56:00.287Z,10.87
2019-05-19T23:58:27.511Z,11.77
